Airfield :
LOGIN :

Register | Disclaimer

   EN    FR    IT 

 










Legend :    VFR   Marginal VFR   IFR   Intensive IFR   Very Intensive IFR
Visi :
Ceiling :
>= 8 km
>= 3000ft
5 to 8 km
1000 to 3000 ft
1500m to 5 km
500 to 1000 ft
800 to 1500m
200 to 500 ft
< 800m
< 200 ft
Symbols :   Thunderstorms  Fog  Heavy snow  Heavy precipitations  Wind > 20 kt
SIGMETs :     Misc.  Thunderstorms  Icing  Turbulence  Mountain Waves  Volcanic Ashes






- Airport Elevation : 357 ft
- IATA code : TUF


LFOT - Tours

CURRENT METAR :
  • 211830Z AUTO 32002KT CAVOK 11/10 Q1017 NOSIG

EXPIRED METARs :
  • 211800Z AUTO 33003KT CAVOK 12/11 Q1016 NOSIG
  • 211730Z AUTO 31003KT 9999 SCT039 BKN047 BKN058 12/11 Q1016 NOSIG
  • 211700Z AUTO VRB03KT 9999 FEW015 SCT048 BKN068 13/11 Q1015 TEMPO 24015KT 4000 SHRA BKN025 SCT040CB
  • 211630Z AUTO 29005KT 9999 FEW033/// SCT058/// BKN140/// ///CB 13/11 Q1015 TEMPO 24015KT 4000 SHRA BECMG NSC
  • 211600Z AUTO 29005KT 260V320 9999 FEW012/// BKN032/// BKN043/// ///CB 13/11 Q1014 TEMPO 4000 SHRA BECMG 24015KT

TAF TAF LFOT
Valid from the 21 at 18:00 until the 22 at 18:00 UTC


211700Z 2118/2218 35005KT 9999 SCT040



MET'MAP, your aeronautical weather chart ! - Copyright ORBIFLY December 2007 - Disclaimer

ORBIFLY MET'MAP TEAM :

Programming & Development : Alexandra Zaïnal
Concept & original design : Baudouin d'Aumeries
Assistance for programming : Marc-Olivier Méhu
Technical & hardware support : Manuel Goepfert

Contact : metmap@orbifly.com




SOURCES & CREDITS :

   NOAA